createdAt,value
2018-07-31T00:00:24.891Z,11.53
2018-07-31T00:02:53.930Z,8.00
2018-07-31T00:05:24.051Z,9.33
2018-07-31T00:07:53.308Z,8.13
2018-07-31T00:10:22.742Z,9.87
2018-07-31T00:12:52.147Z,9.53
2018-07-31T00:15:23.660Z,9.57
2018-07-31T00:17:53.405Z,9.53
2018-07-31T00:20:23.566Z,8.97
2018-07-31T00:22:52.300Z,9.20
2018-07-31T00:25:20.986Z,12.03
2018-07-31T00:27:49.944Z,10.90
2018-07-31T00:30:18.593Z,8.97
2018-07-31T00:32:48.398Z,8.80
2018-07-31T00:35:17.744Z,9.50
2018-07-31T00:37:47.485Z,10.00
2018-07-31T00:40:17.534Z,9.40
2018-07-31T00:42:50.275Z,9.47
2018-07-31T00:45:19.093Z,9.30
2018-07-31T00:47:48.912Z,8.20
2018-07-31T00:50:18.264Z,10.43
2018-07-31T00:52:46.879Z,9.00
2018-07-31T00:55:15.517Z,10.33
2018-07-31T00:57:44.146Z,8.33
2018-07-31T01:00:13.423Z,11.40
2018-07-31T01:02:42.734Z,13.40
2018-07-31T01:05:11.911Z,11.80
2018-07-31T01:07:41.396Z,9.17
2018-07-31T01:10:10.960Z,8.37
2018-07-31T01:12:40.215Z,10.30
2018-07-31T01:15:09.778Z,9.53
2018-07-31T01:17:39.227Z,9.30
2018-07-31T01:20:09.738Z,11.67
2018-07-31T01:22:38.477Z,8.90
2018-07-31T01:25:08.544Z,7.93
2018-07-31T01:27:37.548Z,8.77
2018-07-31T01:30:06.733Z,10.57
2018-07-31T01:32:35.529Z,10.30
2018-07-31T01:35:05.620Z,9.07
2018-07-31T01:37:34.267Z,10.63
2018-07-31T01:40:02.927Z,10.83
2018-07-31T01:42:32.055Z,11.73
2018-07-31T01:45:02.389Z,10.23
2018-07-31T01:47:31.838Z,13.63
2018-07-31T01:50:00.451Z,11.80
2018-07-31T01:52:29.252Z,11.33
2018-07-31T01:54:57.846Z,9.53
2018-07-31T01:57:26.482Z,10.20
2018-07-31T01:59:55.856Z,14.00
2018-07-31T02:02:26.814Z,10.80
2018-07-31T02:04:55.423Z,10.83
2018-07-31T02:07:24.297Z,11.00
2018-07-31T02:09:53.078Z,9.00
2018-07-31T02:12:21.660Z,9.63
2018-07-31T02:14:50.260Z,9.13
2018-07-31T02:17:18.927Z,8.87
2018-07-31T02:19:48.417Z,9.50
2018-07-31T02:22:17.861Z,9.70
2018-07-31T02:24:47.604Z,14.50
2018-07-31T02:27:17.407Z,10.37
2018-07-31T02:29:51.877Z,10.30
2018-07-31T02:32:21.119Z,9.73
2018-07-31T02:34:49.747Z,11.40
2018-07-31T02:37:18.912Z,8.60
2018-07-31T02:39:47.502Z,9.87
2018-07-31T02:42:16.131Z,10.07
2018-07-31T02:44:44.852Z,9.20
2018-07-31T02:47:14.154Z,10.63
2018-07-31T02:49:42.803Z,10.33
2018-07-31T02:52:12.094Z,10.73
2018-07-31T02:54:40.757Z,11.57
2018-07-31T02:57:09.915Z,9.47
2018-07-31T02:59:38.840Z,10.40
2018-07-31T03:02:07.557Z,13.63
2018-07-31T03:04:36.781Z,12.77
2018-07-31T03:07:06.211Z,13.07
2018-07-31T03:09:36.313Z,9.80
2018-07-31T03:12:05.699Z,9.10
2018-07-31T03:14:34.918Z,8.70
2018-07-31T03:17:05.130Z,8.77
2018-07-31T03:19:34.224Z,9.30
2018-07-31T03:22:03.967Z,9.27
2018-07-31T03:24:34.136Z,11.20
2018-07-31T03:27:03.737Z,12.00
2018-07-31T03:29:33.231Z,10.70
2018-07-31T03:32:02.594Z,11.00
2018-07-31T03:34:32.688Z,12.40
2018-07-31T03:37:02.585Z,10.10
2018-07-31T03:39:33.454Z,11.87
2018-07-31T03:42:03.339Z,14.10
2018-07-31T03:44:31.985Z,10.03
2018-07-31T03:47:01.786Z,10.97
2018-07-31T03:49:31.238Z,12.73
2018-07-31T03:52:00.752Z,14.23
2018-07-31T03:54:29.412Z,9.10
2018-07-31T03:56:58.047Z,9.50
2018-07-31T03:59:26.717Z,9.77
2018-07-31T04:01:55.371Z,12.30
2018-07-31T04:04:24.139Z,10.50
2018-07-31T04:06:53.910Z,12.30
2018-07-31T04:09:22.781Z,10.00
2018-07-31T04:11:51.968Z,10.93
2018-07-31T04:14:20.591Z,12.20
2018-07-31T04:16:49.276Z,11.10
2018-07-31T04:19:17.852Z,11.10
2018-07-31T04:21:46.901Z,11.00
2018-07-31T04:24:16.868Z,10.33
2018-07-31T04:26:46.336Z,12.60
2018-07-31T04:29:15.534Z,13.10
2018-07-31T04:31:44.941Z,11.40
2018-07-31T04:34:13.601Z,12.23
2018-07-31T04:36:42.421Z,14.67
2018-07-31T04:39:13.210Z,13.60
2018-07-31T04:41:42.058Z,13.03
2018-07-31T04:44:11.178Z,14.67
2018-07-31T04:46:39.843Z,15.20
2018-07-31T04:49:08.507Z,15.27
2018-07-31T04:51:37.132Z,11.70
2018-07-31T04:54:06.654Z,14.30
2018-07-31T04:56:36.149Z,21.73
2018-07-31T04:59:05.685Z,12.77
2018-07-31T05:01:34.325Z,11.97
2018-07-31T05:04:03.339Z,12.27
2018-07-31T05:06:32.596Z,12.70
2018-07-31T05:09:02.654Z,12.77
2018-07-31T05:11:32.104Z,12.70
2018-07-31T05:14:01.586Z,13.60
2018-07-31T05:16:33.334Z,14.27
2018-07-31T05:19:02.072Z,15.60
2018-07-31T05:21:31.008Z,14.77
2018-07-31T05:24:00.257Z,14.27
2018-07-31T05:26:29.939Z,14.37
2018-07-31T05:28:59.420Z,15.63
2018-07-31T05:31:28.023Z,24.23
2018-07-31T05:33:57.484Z,15.53
2018-07-31T05:36:26.169Z,15.23
2018-07-31T05:38:54.898Z,19.03
2018-07-31T05:41:24.095Z,16.00
2018-07-31T05:43:53.665Z,14.37
2018-07-31T05:46:22.544Z,14.60
2018-07-31T05:48:51.197Z,14.03
2018-07-31T05:51:20.432Z,16.03
2018-07-31T05:53:49.086Z,17.00
2018-07-31T05:56:18.161Z,11.77
2018-07-31T05:58:47.449Z,15.00
2018-07-31T06:01:17.042Z,13.37
2018-07-31T06:03:46.372Z,12.77
2018-07-31T06:06:15.973Z,20.07
2018-07-31T06:08:44.655Z,14.93
2018-07-31T06:11:13.390Z,15.17
2018-07-31T06:13:42.208Z,14.80
2018-07-31T06:16:10.947Z,17.40
2018-07-31T06:18:39.701Z,14.03
2018-07-31T06:21:09.257Z,16.30
2018-07-31T06:23:38.107Z,13.70
2018-07-31T06:26:07.133Z,14.43
2018-07-31T06:28:35.838Z,16.10
2018-07-31T06:31:04.583Z,19.53
2018-07-31T06:33:33.275Z,18.67
2018-07-31T06:36:02.801Z,20.57
2018-07-31T06:38:32.117Z,12.00
2018-07-31T06:41:01.128Z,9.70
2018-07-31T06:43:30.604Z,11.60
2018-07-31T06:45:59.507Z,17.80
2018-07-31T06:48:28.272Z,12.20
2018-07-31T06:50:57.140Z,17.97
2018-07-31T06:53:26.378Z,11.80
2018-07-31T06:55:55.691Z,12.90
2018-07-31T06:58:24.962Z,11.53
2018-07-31T07:00:53.625Z,10.43
2018-07-31T07:03:22.339Z,13.13
2018-07-31T07:05:51.000Z,11.33
2018-07-31T07:08:21.136Z,10.70
2018-07-31T07:10:49.888Z,11.70
2018-07-31T07:13:18.549Z,10.00
2018-07-31T07:15:47.195Z,13.77
2018-07-31T07:18:16.084Z,16.40
2018-07-31T07:20:44.720Z,10.83
2018-07-31T07:23:13.386Z,9.77
2018-07-31T07:25:41.995Z,13.43
2018-07-31T07:28:11.005Z,17.53
2018-07-31T07:30:40.106Z,12.57
2018-07-31T07:33:09.424Z,10.23
2018-07-31T07:35:38.692Z,10.90
2018-07-31T07:38:07.341Z,9.90
2018-07-31T07:40:35.995Z,14.13
2018-07-31T07:43:05.381Z,11.90
2018-07-31T07:45:34.322Z,11.00
2018-07-31T07:48:03.508Z,10.03
2018-07-31T07:50:32.994Z,12.70
2018-07-31T07:53:01.658Z,10.27
2018-07-31T07:55:30.337Z,15.87
2018-07-31T07:57:58.954Z,15.47
2018-07-31T08:00:27.707Z,9.13
2018-07-31T08:02:56.341Z,10.80
2018-07-31T08:05:25.422Z,10.10
2018-07-31T08:07:54.646Z,11.40
2018-07-31T08:10:23.307Z,10.20
2018-07-31T08:12:52.045Z,10.80
2018-07-31T08:15:20.814Z,14.47
2018-07-31T08:17:49.488Z,12.60
2018-07-31T08:20:18.338Z,9.87
2018-07-31T08:22:47.098Z,9.23
2018-07-31T08:25:15.853Z,10.70
2018-07-31T08:27:44.702Z,12.13
2018-07-31T08:30:14.011Z,12.50
2018-07-31T08:32:42.598Z,10.07
2018-07-31T08:35:11.301Z,13.60
2018-07-31T08:37:40.470Z,11.80
2018-07-31T08:40:09.257Z,15.43
2018-07-31T08:42:38.726Z,15.33
2018-07-31T08:45:07.423Z,10.70
2018-07-31T08:47:36.696Z,9.40
2018-07-31T08:50:05.698Z,12.13
2018-07-31T08:52:34.630Z,13.13
2018-07-31T08:55:03.963Z,10.80
2018-07-31T08:57:32.762Z,14.57
2018-07-31T09:00:01.396Z,15.10
2018-07-31T09:02:30.610Z,13.70
2018-07-31T09:04:59.407Z,10.07
2018-07-31T09:07:28.167Z,9.50
2018-07-31T09:09:57.421Z,11.60
2018-07-31T09:12:26.098Z,12.87
2018-07-31T09:14:54.792Z,11.03
2018-07-31T09:17:23.568Z,12.23
2018-07-31T09:19:52.196Z,10.50
2018-07-31T09:22:20.858Z,11.67
2018-07-31T09:24:49.834Z,10.27
2018-07-31T09:27:18.429Z,13.30
2018-07-31T09:29:47.053Z,12.87
2018-07-31T09:32:15.772Z,10.73
2018-07-31T09:34:47.067Z,17.33
2018-07-31T09:37:17.250Z,12.40
2018-07-31T09:39:46.184Z,18.67
2018-07-31T09:42:14.769Z,18.53
2018-07-31T09:44:43.785Z,8.90
2018-07-31T09:47:12.448Z,10.73
2018-07-31T09:49:41.069Z,8.43
2018-07-31T09:52:10.870Z,14.53
2018-07-31T09:54:39.820Z,15.10
2018-07-31T09:57:08.478Z,17.60
2018-07-31T09:59:37.315Z,9.70
2018-07-31T10:02:06.606Z,10.37
2018-07-31T10:04:36.033Z,9.47
2018-07-31T10:07:04.781Z,11.70
2018-07-31T10:09:33.407Z,10.10
2018-07-31T10:12:02.824Z,9.30
2018-07-31T10:14:31.465Z,8.73
2018-07-31T10:17:00.201Z,9.97
2018-07-31T10:19:29.352Z,9.47
2018-07-31T10:21:58.151Z,8.80
2018-07-31T10:24:26.952Z,9.80
2018-07-31T10:26:55.618Z,8.57
2018-07-31T10:29:24.443Z,8.10
2018-07-31T10:31:53.196Z,12.67
2018-07-31T10:34:22.033Z,8.93
2018-07-31T10:36:51.375Z,11.73
2018-07-31T10:39:20.355Z,8.77
2018-07-31T10:41:49.133Z,9.57
2018-07-31T10:44:18.332Z,9.17
2018-07-31T10:46:47.160Z,7.87
2018-07-31T10:49:15.780Z,8.77
2018-07-31T10:51:44.494Z,7.90
2018-07-31T10:54:13.132Z,9.73
2018-07-31T10:56:42.398Z,8.00
2018-07-31T10:59:11.006Z,8.33
2018-07-31T11:01:39.752Z,7.20
2018-07-31T11:04:08.614Z,8.73
2018-07-31T11:06:37.231Z,9.87
2018-07-31T11:09:09.499Z,7.67
2018-07-31T11:11:38.133Z,8.60
2018-07-31T11:14:07.302Z,7.60
2018-07-31T11:16:36.944Z,9.00
2018-07-31T11:19:05.674Z,8.43
2018-07-31T11:21:34.462Z,7.33
2018-07-31T11:24:03.937Z,7.53
2018-07-31T11:26:33.301Z,7.77
2018-07-31T11:29:01.961Z,10.13
2018-07-31T11:31:30.667Z,7.47
2018-07-31T11:33:59.274Z,10.20
2018-07-31T11:36:28.170Z,7.70
2018-07-31T11:38:57.699Z,7.40
2018-07-31T11:41:26.396Z,8.30
2018-07-31T11:43:55.049Z,6.80
2018-07-31T11:46:24.345Z,8.83
2018-07-31T11:48:52.994Z,6.73
2018-07-31T11:51:21.682Z,7.37
2018-07-31T11:53:50.547Z,8.23
2018-07-31T11:56:19.175Z,7.80
2018-07-31T11:58:48.217Z,7.57
2018-07-31T12:01:16.895Z,6.60
2018-07-31T12:03:46.064Z,9.27
2018-07-31T12:06:15.329Z,7.80
2018-07-31T12:08:43.979Z,7.90
2018-07-31T12:11:12.809Z,6.87
2018-07-31T12:13:42.129Z,7.77
2018-07-31T12:16:11.361Z,7.47
2018-07-31T12:18:40.745Z,10.90
2018-07-31T12:21:09.954Z,7.20
2018-07-31T12:23:38.575Z,7.90
2018-07-31T12:26:07.572Z,7.97
2018-07-31T12:28:36.718Z,6.77
2018-07-31T12:31:05.624Z,7.27
2018-07-31T12:33:34.361Z,9.33
2018-07-31T12:36:03.495Z,12.37
2018-07-31T12:38:32.168Z,8.60
2018-07-31T12:41:01.040Z,7.60
2018-07-31T12:43:30.138Z,7.43
2018-07-31T12:45:58.835Z,8.20
2018-07-31T12:48:27.654Z,9.23
2018-07-31T12:50:57.046Z,11.33
2018-07-31T12:53:26.168Z,8.13
2018-07-31T12:55:55.609Z,12.40
2018-07-31T12:58:24.403Z,9.43
2018-07-31T13:00:53.019Z,7.30
2018-07-31T13:03:22.168Z,9.63
2018-07-31T13:05:50.832Z,8.30
2018-07-31T13:08:19.513Z,10.80
2018-07-31T13:10:48.138Z,6.57
2018-07-31T13:13:17.008Z,7.03
2018-07-31T13:15:46.093Z,9.20
2018-07-31T13:18:15.517Z,7.83
2018-07-31T13:20:44.965Z,9.90
2018-07-31T13:23:13.951Z,6.57
2018-07-31T13:25:42.652Z,7.30
2018-07-31T13:28:11.400Z,7.83
2018-07-31T13:30:41.048Z,10.67
2018-07-31T13:33:09.819Z,11.00
2018-07-31T13:35:39.411Z,7.63
2018-07-31T13:38:08.703Z,7.40
2018-07-31T13:40:37.470Z,7.80
2018-07-31T13:43:06.204Z,8.20
2018-07-31T13:45:35.578Z,8.27
2018-07-31T13:48:04.498Z,8.03
2018-07-31T13:50:33.282Z,7.20
2018-07-31T13:53:01.935Z,7.40
2018-07-31T13:55:30.757Z,6.80
2018-07-31T13:57:59.460Z,8.23
2018-07-31T14:00:28.115Z,7.63
2018-07-31T14:02:56.853Z,6.73
2018-07-31T14:05:25.635Z,6.93
2018-07-31T14:07:54.278Z,7.27
2018-07-31T14:10:23.699Z,7.27
2018-07-31T14:12:52.438Z,11.17
2018-07-31T14:15:21.459Z,7.57
2018-07-31T14:17:50.248Z,8.10
2018-07-31T14:20:19.992Z,8.40
2018-07-31T14:22:49.035Z,7.17
2018-07-31T14:25:17.718Z,7.37
2018-07-31T14:27:46.403Z,7.57
2018-07-31T14:30:16.268Z,6.97
2018-07-31T14:32:45.625Z,7.13
2018-07-31T14:35:14.426Z,6.73
2018-07-31T14:37:43.788Z,7.43
2018-07-31T14:40:12.424Z,7.23
2018-07-31T14:42:41.517Z,6.43
2018-07-31T14:45:10.183Z,6.90
2018-07-31T14:47:38.916Z,6.60
2018-07-31T14:50:07.615Z,8.53
2018-07-31T14:52:37.361Z,19.20
2018-07-31T14:55:12.507Z,8.03
2018-07-31T14:57:44.084Z,6.83
2018-07-31T15:00:13.807Z,8.80
2018-07-31T15:02:42.876Z,10.17
2018-07-31T15:05:12.462Z,6.53
2018-07-31T15:07:41.606Z,7.70
2018-07-31T15:10:10.432Z,7.23
2018-07-31T15:12:39.726Z,6.73
2018-07-31T15:15:08.516Z,7.50
2018-07-31T15:17:37.205Z,11.30
2018-07-31T15:20:05.983Z,13.53
2018-07-31T15:22:34.720Z,7.53
2018-07-31T15:25:03.485Z,7.63
2018-07-31T15:27:32.242Z,8.90
2018-07-31T15:30:01.794Z,7.60
2018-07-31T15:32:30.461Z,6.57
2018-07-31T15:34:59.289Z,7.17
2018-07-31T15:37:28.774Z,7.43
2018-07-31T15:39:57.597Z,7.00
2018-07-31T15:42:27.129Z,7.40
2018-07-31T15:44:57.720Z,7.70
2018-07-31T15:47:26.752Z,10.60
2018-07-31T15:49:55.521Z,10.77
2018-07-31T15:52:24.187Z,8.40
2018-07-31T15:54:53.284Z,8.57
2018-07-31T15:57:22.719Z,9.00
2018-07-31T15:59:51.388Z,7.30
2018-07-31T16:02:20.163Z,7.20
2018-07-31T16:04:49.347Z,6.50
2018-07-31T16:07:18.677Z,6.93
2018-07-31T16:09:47.423Z,10.13
2018-07-31T16:12:16.304Z,7.37
2018-07-31T16:14:45.334Z,6.97
2018-07-31T16:17:14.080Z,6.67
2018-07-31T16:19:43.012Z,7.80
2018-07-31T16:22:11.839Z,12.33
2018-07-31T16:24:40.544Z,6.50
2018-07-31T16:27:09.434Z,6.80
2018-07-31T16:29:38.143Z,7.57
2018-07-31T16:32:07.052Z,10.47
2018-07-31T16:34:35.833Z,6.97
2018-07-31T16:37:04.506Z,6.87
2018-07-31T16:39:33.198Z,9.50
2018-07-31T16:42:01.920Z,7.43
2018-07-31T16:44:31.558Z,7.10
2018-07-31T16:47:00.268Z,8.53
2018-07-31T16:49:28.962Z,8.50
2018-07-31T16:51:58.441Z,6.77
2018-07-31T16:54:27.142Z,9.20
2018-07-31T16:56:55.864Z,8.60
2018-07-31T16:59:25.191Z,7.27
2018-07-31T17:01:54.836Z,7.50
2018-07-31T17:04:23.535Z,7.90
2018-07-31T17:06:52.314Z,9.43
2018-07-31T17:09:21.096Z,7.17
2018-07-31T17:11:50.881Z,7.33
2018-07-31T17:14:19.702Z,10.33
2018-07-31T17:16:48.438Z,8.93
2018-07-31T17:19:17.090Z,8.13
2018-07-31T17:21:46.283Z,10.47
2018-07-31T17:24:15.713Z,12.50
2018-07-31T17:26:44.460Z,9.00
2018-07-31T17:29:13.162Z,7.63
2018-07-31T17:31:46.137Z,8.80
2018-07-31T17:34:19.712Z,9.60
2018-07-31T17:36:54.298Z,7.50
2018-07-31T17:39:24.310Z,7.87
2018-07-31T17:41:53.989Z,7.90
2018-07-31T17:44:34.146Z,8.13
2018-07-31T17:47:24.949Z,7.50
2018-07-31T17:49:55.993Z,10.93
2018-07-31T17:52:25.080Z,8.47
2018-07-31T17:54:57.572Z,9.87
2018-07-31T17:57:27.125Z,10.83
2018-07-31T17:59:56.364Z,9.40
2018-07-31T18:02:25.671Z,8.00
2018-07-31T18:04:54.453Z,7.60
2018-07-31T18:07:23.142Z,8.33
2018-07-31T18:09:52.659Z,13.13
2018-07-31T18:12:21.992Z,10.03
2018-07-31T18:14:50.794Z,9.70
2018-07-31T18:17:19.489Z,10.73
2018-07-31T18:19:48.216Z,8.10
2018-07-31T18:22:17.027Z,8.77
2018-07-31T18:24:45.708Z,9.70
2018-07-31T18:27:14.442Z,7.97
2018-07-31T18:29:43.998Z,7.50
2018-07-31T18:32:12.958Z,8.97
2018-07-31T18:34:41.701Z,9.87
2018-07-31T18:37:10.490Z,11.80
2018-07-31T18:39:39.740Z,13.53
2018-07-31T18:42:08.618Z,7.60
2018-07-31T18:44:37.356Z,9.57
2018-07-31T18:47:06.737Z,7.47
2018-07-31T18:49:35.415Z,8.23
2018-07-31T18:52:04.105Z,7.07
2018-07-31T18:54:32.991Z,7.50
2018-07-31T18:57:02.459Z,8.97
2018-07-31T18:59:31.581Z,9.50
2018-07-31T19:02:00.288Z,10.10
2018-07-31T19:04:29.056Z,8.33
2018-07-31T19:06:58.429Z,9.70
2018-07-31T19:09:27.180Z,11.43
2018-07-31T19:11:55.991Z,9.03
2018-07-31T19:14:24.645Z,7.70
2018-07-31T19:16:53.774Z,10.07
2018-07-31T19:19:22.529Z,8.53
2018-07-31T19:21:51.259Z,8.53
2018-07-31T19:24:20.058Z,8.90
2018-07-31T19:26:48.766Z,9.13
2018-07-31T19:29:18.170Z,10.23
2018-07-31T19:31:46.826Z,7.63
2018-07-31T19:34:16.118Z,11.20
2018-07-31T19:36:44.834Z,11.00
2018-07-31T19:39:13.715Z,9.03
2018-07-31T19:41:42.415Z,8.67
2018-07-31T19:44:11.525Z,12.27
2018-07-31T19:46:40.555Z,7.30
2018-07-31T19:49:09.247Z,8.73
2018-07-31T19:51:38.123Z,7.87
2018-07-31T19:54:07.711Z,8.47
2018-07-31T19:56:36.605Z,7.70
2018-07-31T19:59:06.149Z,7.30
2018-07-31T20:01:34.869Z,10.60
2018-07-31T20:04:03.691Z,7.70
2018-07-31T20:06:32.409Z,7.83
2018-07-31T20:09:01.137Z,12.17
2018-07-31T20:11:30.152Z,7.27
2018-07-31T20:13:58.829Z,8.10
2018-07-31T20:16:27.582Z,7.80
2018-07-31T20:18:56.420Z,11.00
2018-07-31T20:21:25.494Z,8.47
2018-07-31T20:23:54.162Z,7.00
2018-07-31T20:26:23.478Z,9.30
2018-07-31T20:28:53.588Z,8.53
2018-07-31T20:31:22.361Z,11.20
2018-07-31T20:33:51.495Z,8.80
2018-07-31T20:36:20.758Z,9.17
2018-07-31T20:38:51.186Z,8.03
2018-07-31T20:41:21.599Z,7.50
2018-07-31T20:43:51.584Z,6.83
2018-07-31T20:46:22.929Z,7.77
2018-07-31T20:48:51.925Z,7.97
2018-07-31T20:51:21.056Z,6.83
2018-07-31T20:53:49.825Z,6.40
2018-07-31T20:56:18.671Z,6.90
2018-07-31T20:58:47.444Z,8.57
2018-07-31T21:01:16.288Z,6.53
2018-07-31T21:03:45.033Z,6.40
2018-07-31T21:06:13.700Z,8.00
2018-07-31T21:08:42.406Z,8.23
2018-07-31T21:11:11.662Z,7.80
2018-07-31T21:13:40.498Z,7.63
2018-07-31T21:16:09.246Z,6.70
2018-07-31T21:18:38.034Z,8.13
2018-07-31T21:21:07.145Z,6.87
2018-07-31T21:23:36.428Z,7.07
2018-07-31T21:26:05.536Z,8.40
2018-07-31T21:28:34.959Z,7.00
2018-07-31T21:31:04.678Z,8.70
2018-07-31T21:33:33.377Z,8.27
2018-07-31T21:36:02.009Z,7.57
2018-07-31T21:38:30.669Z,11.57
2018-07-31T21:40:59.321Z,7.37
2018-07-31T21:43:28.686Z,7.50
2018-07-31T21:45:58.143Z,7.63
2018-07-31T21:48:27.669Z,7.30
2018-07-31T21:50:56.327Z,7.60
2018-07-31T21:53:25.156Z,11.47
2018-07-31T21:55:54.397Z,9.40
2018-07-31T21:58:23.107Z,7.87
2018-07-31T22:00:57.255Z,7.00
2018-07-31T22:03:26.143Z,8.97
2018-07-31T22:05:54.899Z,6.93
2018-07-31T22:08:23.493Z,7.40
2018-07-31T22:10:52.386Z,8.80
2018-07-31T22:15:55.545Z,9.43
2018-07-31T22:18:25.138Z,7.70
2018-07-31T22:20:53.980Z,8.87
2018-07-31T22:23:23.539Z,7.00
2018-07-31T22:25:53.079Z,8.60
2018-07-31T22:28:21.928Z,8.80
2018-07-31T22:30:50.797Z,9.63
2018-07-31T22:33:19.494Z,8.70
2018-07-31T22:35:49.145Z,7.87
2018-07-31T22:38:18.436Z,9.37
2018-07-31T22:40:47.171Z,8.53
2018-07-31T22:43:16.114Z,10.97
2018-07-31T22:45:45.886Z,11.60
2018-07-31T22:48:20.530Z,7.77
2018-07-31T22:50:49.669Z,9.93
2018-07-31T22:53:23.578Z,8.93
2018-07-31T22:55:53.375Z,8.63
2018-07-31T22:58:31.498Z,8.50
2018-07-31T23:01:01.592Z,8.83
2018-07-31T23:03:31.156Z,8.97
2018-07-31T23:05:59.891Z,8.23
2018-07-31T23:08:31.044Z,8.07
2018-07-31T23:11:00.429Z,8.90
2018-07-31T23:13:29.539Z,9.40
2018-07-31T23:16:04.948Z,8.17
2018-07-31T23:18:33.722Z,7.93
2018-07-31T23:21:02.402Z,8.10
2018-07-31T23:23:31.103Z,10.40
2018-07-31T23:25:59.757Z,8.70
2018-07-31T23:28:28.562Z,7.80
2018-07-31T23:30:57.404Z,8.70
2018-07-31T23:33:26.090Z,8.27
2018-07-31T23:35:54.770Z,8.30
2018-07-31T23:38:24.251Z,10.87
2018-07-31T23:40:53.545Z,8.00
2018-07-31T23:43:23.083Z,7.70
2018-07-31T23:45:51.677Z,9.10
2018-07-31T23:48:20.319Z,8.43
2018-07-31T23:50:48.943Z,11.07
2018-07-31T23:53:17.721Z,7.90
2018-07-31T23:55:46.651Z,8.50
2018-07-31T23:58:15.667Z,9.10
